Latest Weather Observations for Cleve Airport

IDS60801

Issued at 11:05 pm CST Wednesday 16 April 2014 (issued every 30 minutes, with the page automatically refreshed every 10 minutes)

About weather observations | Map of weather stations | Latest weather observations for SA | Other Formats
Station Details ID: 018116 Name: CLEVE AERODROME Lat: -33.71 Lon: 136.50 Height: 175.0 m
Data from the previous 72 hours. | See also: Recent months at Cleve Airport
Date/Time
CST
Temp
°C
App
Temp
°C
Dew
Point
Rel
Hum
%
Delta-T
°C
Wind Press
QNH
hPa
Press
MSL
hPa
Rain
since 9 am
mm
Dir
 
Spd
km/h
Gust
km/h
Spd
kts
Gust
kts
16/11:00pm 13.5 11.5 10.1 80 1.8 NW 11 13 6 7 1021.3 - 0.0
16/10:30pm 13.9 11.7 9.3 74 2.4 NW 11 15 6 8 1021.4 - 0.0
16/10:00pm 14.2 12.0 9.2 72 2.6 NW 11 13 6 7 1021.3 - 0.0
16/09:30pm 14.0 11.6 8.8 71 2.7 NW 11 13 6 7 1021.2 - 0.0
16/09:00pm 14.6 12.6 8.8 68 3.0 WNW 9 9 5 5 1021.2 1020.9 0.0
16/08:30pm 14.6 13.2 8.8 68 3.0 W 6 11 3 6 1021.1 - 0.0
16/08:00pm 15.3 15.1 9.0 66 3.3 CALM 0 0 0 0 1020.8 - 0.0
16/07:30pm 16.2 15.5 8.7 61 3.9 NNE 2 6 1 3 1020.4 - 0.0
16/07:00pm 17.7 17.3 8.3 54 4.9 CALM 0 7 0 4 1020.1 - 0.0
16/06:30pm 17.9 15.9 8.7 55 4.8 SE 9 11 5 6 1020.0 - 0.0
16/06:00pm 19.1 16.6 8.4 50 5.6 SSE 11 15 6 8 1019.8 1019.4 0.0
16/05:30pm 21.2 17.5 8.1 43 6.9 ESE 17 20 9 11 1019.4 - 0.0
16/05:00pm 22.3 17.7 8.1 40 7.5 SSE 22 26 12 14 1019.1 - 0.0
16/04:30pm 23.4 19.2 8.3 38 8.1 S 20 32 11 17 1018.9 - 0.0
16/04:00pm 25.2 20.7 5.9 29 10.0 SW 19 28 10 15 1018.6 - 0.0
16/03:30pm 25.2 20.6 5.4 28 10.2 W 19 22 10 12 1018.6 - 0.0
16/03:00pm 25.4 20.6 5.6 28 10.2 WSW 20 41 11 22 1018.5 1018.1 0.0
16/02:30pm 25.1 19.4 4.8 27 10.3 WSW 24 32 13 17 1018.9 - 0.0
16/02:00pm 25.0 19.7 5.2 28 10.1 W 22 32 12 17 1019.0 - 0.0
16/01:30pm 25.0 20.1 5.2 28 10.1 W 20 28 11 15 1018.8 - 0.0
16/01:00pm 23.9 19.3 5.8 31 9.3 WNW 19 28 10 15 1019.1 - 0.0
16/12:30pm 23.9 18.9 4.8 29 9.6 WNW 20 30 11 16 1019.3 - 0.0
16/12:00pm 23.8 18.7 6.1 32 9.1 NW 22 39 12 21 1019.7 1019.3 0.0
16/11:30am 23.0 18.5 7.1 36 8.3 NNW 20 28 11 15 1019.8 - 0.0
16/11:00am 22.3 18.1 7.3 38 7.8 NW 19 28 10 15 1020.6 - 0.0
16/10:30am 22.0 18.3 7.8 40 7.5 WNW 17 22 9 12 1021.0 - 0.0
16/10:00am 21.3 17.6 7.9 42 7.0 WNW 17 22 9 12 1021.3 - 0.0
16/09:30am 20.6 17.5 8.9 47 6.2 NNW 15 20 8 11 1021.2 - 0.0
16/09:00am 19.5 15.4 8.8 50 5.6 N 20 24 11 13 1020.9 1020.5 0.2
16/08:30am 18.2 15.0 10.1 59 4.3 N 17 20 9 11 1020.8 - 0.2
16/08:00am 16.7 13.9 10.1 65 3.5 N 15 19 8 10 1020.8 - 0.2
16/07:30am 14.9 12.1 9.9 72 2.6 N 15 19 8 10 1020.3 - 0.2
16/07:00am 12.1 10.3 9.5 84 1.3 N 9 13 5 7 1020.2 - 0.2
16/06:30am 12.2 9.7 9.6 84 1.3 N 13 15 7 8 1020.1 - 0.2
16/06:00am 13.1 10.3 9.9 81 1.7 N 15 19 8 10 1020.1 1019.7 0.2
16/05:30am 13.4 10.2 9.8 79 1.9 N 17 20 9 11 1020.2 - 0.2
16/05:00am 13.3 10.8 9.7 79 1.9 N 13 15 7 8 1020.2 - 0.2
16/04:30am 12.3 10.4 9.0 80 1.7 N 9 13 5 7 1019.9 - 0.2
16/04:00am 12.3 10.1 9.3 82 1.5 N 11 13 6 7 1020.0 - 0.2
16/03:30am 13.2 10.3 9.6 79 1.9 N 15 17 8 9 1020.4 - 0.2
16/03:00am 12.4 10.3 9.6 83 1.4 N 11 13 6 7 1020.6 1020.2 0.2
16/02:30am 11.8 10.0 9.5 86 1.2 N 9 11 5 6 1020.7 - 0.2
16/02:00am 12.3 10.6 9.9 85 1.2 N 9 11 5 6 1021.2 - 0.2
16/01:30am 12.9 11.5 11.0 88 1.0 NNE 9 9 5 5 1021.3 - 0.2
16/01:00am 12.7 11.3 10.9 89 0.9 NNE 9 9 5 5 1021.2 - 0.2
16/12:30am 13.1 12.2 11.2 88 1.0 NE 7 7 4 4 1021.4 - 0.2
16/12:00am 12.6 11.5 10.7 88 1.0 NE 7 9 4 5 1021.5 1021.2 0.2
 
Date/Time
CST
Temp
°C
App
Temp
°C
Dew
Point
Rel
Hum
%
Delta-T
°C
Wind Press
QNH
hPa
Press
MSL
hPa
Rain
since 9 am
mm
Dir
 
Spd
km/h
Gust
km/h
Spd
kts
Gust
kts
15/11:30pm 12.5 10.7 10.7 89 0.9 NE 11 13 6 7 1021.6 - 0.2
15/11:00pm 12.3 10.0 10.4 88 1.0 NE 13 13 7 7 1021.8 - 0.2
15/10:30pm 13.0 11.1 10.5 85 1.3 NNE 11 13 6 7 1021.9 - 0.2
15/10:00pm 12.7 10.7 10.1 84 1.3 NE 11 13 6 7 1022.2 - 0.2
15/09:30pm 13.7 11.4 10.3 80 1.8 ENE 13 17 7 9 1022.2 - 0.2
15/09:00pm 13.3 10.6 10.5 83 1.5 ENE 15 17 8 9 1022.1 1021.8 0.2
15/08:30pm 13.2 11.3 10.4 83 1.5 NE 11 13 6 7 1022.2 - 0.2
15/08:00pm 13.8 12.2 10.2 79 1.9 ENE 9 9 5 5 1022.2 - 0.2
15/07:30pm 14.2 12.7 10.4 78 2.0 E 9 11 5 6 1022.2 - 0.2
15/07:00pm 14.4 12.8 10.2 76 2.2 E 9 11 5 6 1021.8 - 0.2
15/06:30pm 16.0 14.2 10.7 71 2.8 ESE 11 13 6 7 1021.6 - 0.2
15/06:00pm 17.2 14.5 10.3 64 3.7 SE 15 19 8 10 1021.4 1021.1 0.2
15/05:30pm 18.7 15.0 9.5 55 4.9 SE 19 24 10 13 1021.0 - 0.2
15/05:00pm 19.8 15.3 8.5 48 5.9 SE 22 30 12 16 1020.9 - 0.2
15/04:30pm 20.6 16.2 7.6 43 6.7 SE 20 28 11 15 1021.0 - 0.2
15/04:00pm 21.4 17.5 6.9 39 7.5 ESE 17 28 9 15 1020.9 - 0.2
15/03:30pm 21.5 17.2 7.0 39 7.5 SSE 19 26 10 14 1021.1 - 0.2
15/03:00pm 21.5 17.2 7.0 39 7.5 ESE 19 32 10 17 1021.1 1020.7 0.2
15/02:30pm 22.5 19.2 7.9 39 7.7 ESE 15 22 8 12 1021.3 - 0.0
15/12:00pm 21.7 17.3 7.5 40 7.4 ESE 20 28 11 15 1022.6 1022.3 0.0
15/11:30am 21.3 16.8 8.6 44 6.7 E 22 35 12 19 1023.0 - 0.0
15/11:00am 20.1 15.9 9.9 52 5.5 ESE 22 28 12 15 1023.3 - 0.0
15/10:30am 19.8 16.1 11.6 59 4.6 ESE 22 28 12 15 1023.4 - 0.0
15/10:00am 18.9 15.9 12.4 66 3.7 E 20 26 11 14 1023.6 - 0.0
15/09:30am 17.9 15.1 13.2 74 2.7 ESE 20 26 11 14 1023.7 - 0.0
15/09:00am 18.0 15.2 13.3 74 2.7 ESE 20 28 11 15 1023.8 1023.5 0.0
15/08:30am 17.1 15.8 13.8 81 1.9 E 13 20 7 11 1023.6 - 0.0
15/08:00am 15.1 15.0 13.8 92 0.7 ESE 7 9 4 5 1023.5 - 0.0
15/07:30am 14.0 14.2 12.9 93 0.6 ENE 4 7 2 4 1023.3 - 0.0
15/07:00am 13.6 12.7 12.5 93 0.6 E 9 9 5 5 1023.2 - 0.0
15/06:30am 14.2 14.0 12.9 92 0.7 ESE 6 11 3 6 1023.1 - 0.0
15/06:00am 14.3 13.9 13.0 92 0.7 SSE 7 9 4 5 1023.1 1022.8 0.0
15/05:30am 14.3 13.2 13.0 92 0.7 SSE 11 13 6 7 1023.1 - 0.0
15/05:00am 13.6 13.0 12.2 91 0.8 ESE 7 13 4 7 1023.0 - 0.0
15/04:30am 13.5 12.4 11.9 90 0.9 ESE 9 13 5 7 1022.8 - 0.0
15/04:00am 13.9 12.1 12.1 89 1.0 ESE 13 15 7 8 1022.7 - 0.0
15/03:30am 14.2 12.5 12.4 89 1.0 SE 13 17 7 9 1022.7 - 0.0
15/03:00am 14.5 12.4 12.4 87 1.1 ESE 15 19 8 10 1022.8 1022.5 0.0
15/02:30am 14.5 12.7 12.2 86 1.3 SE 13 17 7 9 1023.1 - 0.0
15/02:00am 14.6 12.0 12.1 85 1.4 ESE 17 20 9 11 1023.3 - 0.0
15/01:30am 15.0 12.9 12.5 85 1.4 ESE 15 22 8 12 1023.4 - 0.0
15/01:00am 15.1 12.2 12.2 83 1.6 ESE 19 22 10 12 1023.4 - 0.0
15/12:30am 15.3 12.8 12.4 83 1.6 ESE 17 24 9 13 1023.4 - 0.0
15/12:00am 15.0 12.5 12.3 84 1.5 ESE 17 22 9 12 1023.4 1023.1 0.0
 
Date/Time
CST
Temp
°C
App
Temp
°C
Dew
Point
Rel
Hum
%
Delta-T
°C
Wind Press
QNH
hPa
Press
MSL
hPa
Rain
since 9 am
mm
Dir
 
Spd
km/h
Gust
km/h
Spd
kts
Gust
kts
14/11:30pm 15.4 12.9 12.2 81 1.8 ESE 17 22 9 12 1023.7 - 0.0
14/11:00pm 15.1 12.8 11.7 80 1.8 SE 15 20 8 11 1023.9 - 0.0
14/10:30pm 14.8 11.9 11.0 78 2.0 ESE 17 20 9 11 1023.8 - 0.0
14/10:00pm 14.5 11.3 10.1 75 2.3 ESE 17 20 9 11 1023.8 - 0.0
14/09:30pm 14.9 11.1 9.9 72 2.6 ESE 20 24 11 13 1023.9 - 0.0
14/09:00pm 14.7 11.9 10.1 74 2.4 SE 15 20 8 11 1023.9 1023.6 0.0
14/08:30pm 14.7 11.5 9.9 73 2.5 SE 17 20 9 11 1023.6 - 0.0
14/08:00pm 15.3 11.9 10.5 73 2.6 SE 19 22 10 12 1023.4 - 0.0
14/07:30pm 15.7 12.2 10.9 73 2.6 SSE 20 24 11 13 1023.2 - 0.0
14/07:00pm 15.9 12.5 10.7 71 2.8 SE 19 28 10 15 1022.9 - 0.0
14/06:30pm 16.4 13.0 10.7 69 3.1 SE 19 24 10 13 1022.5 - 0.0
14/06:00pm 17.2 12.9 10.8 66 3.4 SE 24 33 13 18 1022.3 1022.0 0.0
14/05:30pm 18.2 12.2 10.1 59 4.3 SE 32 41 17 22 1022.0 - 0.0
14/05:00pm 19.1 13.0 9.6 54 5.1 SE 32 39 17 21 1022.0 - 0.0
14/04:30pm 19.8 13.6 9.4 51 5.6 SE 32 39 17 21 1021.7 - 0.0
14/04:00pm 20.0 14.2 9.3 50 5.7 SE 30 44 16 24 1021.5 - 0.0
14/03:30pm 20.0 15.1 10.1 53 5.4 SE 26 39 14 21 1021.6 - 0.0
14/03:00pm 19.6 14.6 11.1 58 4.7 SSE 28 39 15 21 1021.5 1021.2 0.0
14/02:30pm 20.3 16.1 11.2 56 5.0 SE 24 30 13 16 1021.5 - 0.0
14/02:00pm 20.3 16.6 11.5 57 4.9 SE 22 32 12 17 1021.5 - 0.0
14/01:30pm 19.9 16.6 11.7 59 4.6 ESE 20 32 11 17 1021.5 - 0.0
14/01:00pm 19.4 15.8 11.9 62 4.2 SE 22 30 12 16 1021.7 - 0.0
14/12:30pm 19.9 15.6 12.2 61 4.3 SSE 26 33 14 18 1022.0 - 0.0
14/12:00pm 18.3 13.9 11.6 65 3.7 SE 26 32 14 17 1022.4 1022.1 0.0
14/11:30am 19.8 16.1 12.6 63 4.1 ESE 24 33 13 18 1022.6 - 0.0
14/11:00am 19.2 15.3 12.2 64 3.9 SE 24 30 13 16 1022.8 - 0.0
14/10:30am 18.5 14.7 12.5 68 3.4 SE 24 32 13 17 1023.1 - 0.0
14/10:00am 18.7 14.7 12.9 69 3.3 SE 26 35 14 19 1023.2 - 0.0
14/09:30am 18.5 14.4 12.7 69 3.3 SE 26 33 14 18 1023.0 - 0.0
14/09:00am 16.9 12.9 13.0 78 2.2 SE 26 35 14 19 1022.9 1022.6 0.0
14/08:30am 16.7 15.2 14.3 86 1.4 SE 15 20 8 11 1022.9 - 0.0
14/08:00am 14.1 13.6 12.5 90 0.9 ESE 7 9 4 5 1022.8 - 0.0
14/07:30am 13.7 13.9 11.9 89 1.0 S 2 9 1 5 1022.5 - 0.0
14/07:00am 13.6 14.2 11.8 89 1.0 CALM 0 0 0 0 1022.3 - 0.0
14/06:30am 13.5 13.3 11.9 90 0.9 S 4 7 2 4 1022.2 - 0.0
14/06:00am 13.2 13.6 11.3 88 1.0 CALM 0 4 0 2 1022.2 1021.9 0.0
14/05:30am 14.1 13.6 12.0 87 1.1 S 6 7 3 4 1022.2 - 0.0
14/05:00am 13.9 13.6 11.6 86 1.2 SSW 4 7 2 4 1021.9 - 0.0
14/04:30am 14.1 13.4 11.4 84 1.5 E 6 7 3 4 1021.9 - 0.0
14/04:00am 14.1 13.8 11.3 83 1.5 E 4 7 2 4 1021.9 - 0.0
14/03:30am 13.7 12.7 10.9 83 1.5 E 7 9 4 5 1021.9 - 0.0
14/03:00am 14.1 13.1 10.9 81 1.7 ESE 7 9 4 5 1022.0 1021.7 0.0
14/02:30am 14.5 12.7 10.7 78 2.0 SE 11 15 6 8 1022.1 - 0.0
14/02:00am 14.6 12.3 10.6 77 2.1 SE 13 17 7 9 1022.3 - 0.0
14/01:30am 14.5 12.3 10.7 78 2.0 SE 13 15 7 8 1022.4 - 0.0
14/01:00am 14.6 11.6 10.6 77 2.1 SE 17 19 9 10 1022.3 - 0.0
14/12:30am 14.3 11.6 10.5 78 2.0 SE 15 20 8 11 1022.3 - 0.0
14/12:00am 14.2 11.1 10.4 78 2.0 SE 17 22 9 12 1022.3 1022.0 0.0
 
Date/Time
CST
Temp
°C
App
Temp
°C
Dew
Point
Rel
Hum
%
Delta-T
°C
Wind Press
QNH
hPa
Press
MSL
hPa
Rain
since 9 am
mm
Dir
 
Spd
km/h
Gust
km/h
Spd
kts
Gust
kts
13/11:30pm 13.8 10.2 10.0 78 2.0 SE 19 22 10 12 1022.4 - 0.0

Other Formats:

Comma delimited format used in spreadsheet applications
http://www.bom.gov.au/fwo/IDS60801/IDS60801.94662.axf

JavaScript Object Notation format (JSON) in row-major order
http://www.bom.gov.au/fwo/IDS60801/IDS60801.94662.json